createdAt,value
2018-03-30T00:00:37.807Z,7.31
2018-03-30T00:01:37.820Z,7.23
2018-03-30T00:02:37.792Z,7.23
2018-03-30T00:03:37.769Z,7.25
2018-03-30T00:04:37.758Z,7.39
2018-03-30T00:05:37.773Z,7.29
2018-03-30T00:06:37.745Z,7.23
2018-03-30T00:07:37.720Z,7.35
2018-03-30T00:08:37.758Z,7.31
2018-03-30T00:09:37.697Z,7.35
2018-03-30T00:10:37.689Z,7.33
2018-03-30T00:11:37.684Z,7.33
2018-03-30T00:12:37.682Z,7.31
2018-03-30T00:13:37.648Z,7.39
2018-03-30T00:14:37.654Z,7.35
2018-03-30T00:15:37.622Z,7.42
2018-03-30T00:16:37.610Z,7.51
2018-03-30T00:17:37.625Z,7.47
2018-03-30T00:18:37.589Z,7.43
2018-03-30T00:19:37.575Z,7.48
2018-03-30T00:20:37.561Z,7.50
2018-03-30T00:21:37.550Z,7.51
2018-03-30T00:22:37.544Z,7.54
2018-03-30T00:23:37.547Z,7.47
2018-03-30T00:24:37.513Z,7.54
2018-03-30T00:25:37.501Z,7.57
2018-03-30T00:26:37.490Z,7.48
2018-03-30T00:27:37.476Z,7.51
2018-03-30T00:28:37.464Z,7.50
2018-03-30T00:29:37.452Z,7.51
2018-03-30T00:30:37.440Z,7.61
2018-03-30T00:31:37.428Z,7.54
2018-03-30T00:32:37.416Z,7.70
2018-03-30T00:33:37.413Z,7.70
2018-03-30T00:34:37.451Z,7.73
2018-03-30T00:35:37.380Z,7.67
2018-03-30T00:36:37.379Z,7.67
2018-03-30T00:37:37.382Z,7.70
2018-03-30T00:38:37.349Z,7.66
2018-03-30T00:39:37.379Z,7.70
2018-03-30T00:40:37.369Z,7.72
2018-03-30T00:41:37.311Z,7.63
2018-03-30T00:42:37.294Z,7.72
2018-03-30T00:43:37.293Z,7.69
2018-03-30T00:44:37.269Z,7.77
2018-03-30T00:45:37.257Z,7.83
2018-03-30T00:46:37.248Z,7.79
2018-03-30T00:47:37.232Z,7.77
2018-03-30T00:48:37.220Z,7.87
2018-03-30T00:49:37.237Z,7.79
2018-03-30T00:50:37.197Z,7.79
2018-03-30T00:51:37.183Z,7.76
2018-03-30T00:52:37.173Z,7.72
2018-03-30T00:53:37.158Z,7.76
2018-03-30T00:54:37.152Z,7.76
2018-03-30T00:55:37.154Z,7.79
2018-03-30T00:56:37.122Z,7.82
2018-03-30T00:57:37.111Z,7.73
2018-03-30T00:58:37.098Z,7.80
2018-03-30T00:59:37.086Z,7.88
2018-03-30T01:00:37.073Z,7.91
2018-03-30T01:01:37.062Z,7.87
2018-03-30T01:02:37.050Z,7.85
2018-03-30T01:03:37.037Z,7.80
2018-03-30T01:04:37.025Z,7.90
2018-03-30T01:05:37.014Z,7.90
2018-03-30T01:06:37.009Z,7.90
2018-03-30T01:07:36.988Z,7.88
2018-03-30T01:08:37.016Z,7.91
2018-03-30T01:09:36.965Z,7.82
2018-03-30T01:10:36.961Z,7.85
2018-03-30T01:11:36.999Z,7.82
2018-03-30T01:12:36.929Z,7.79
2018-03-30T01:13:36.916Z,7.80
2018-03-30T01:14:36.929Z,7.93
2018-03-30T01:15:36.891Z,7.85
2018-03-30T01:16:36.880Z,7.80
2018-03-30T01:17:36.871Z,7.85
2018-03-30T01:18:36.856Z,7.85
2018-03-30T01:19:36.846Z,7.79
2018-03-30T01:20:36.837Z,7.75
2018-03-30T01:21:36.831Z,7.79
2018-03-30T01:22:36.820Z,7.76
2018-03-30T01:23:36.800Z,7.70
2018-03-30T01:24:36.783Z,7.76
2018-03-30T01:25:36.773Z,7.69
2018-03-30T01:26:36.760Z,7.80
2018-03-30T01:27:36.748Z,7.75
2018-03-30T01:28:36.735Z,7.76
2018-03-30T01:29:36.731Z,7.75
2018-03-30T01:30:36.712Z,7.76
2018-03-30T01:31:36.699Z,7.83
2018-03-30T01:32:36.689Z,7.85
2018-03-30T01:33:36.676Z,7.77
2018-03-30T01:34:36.663Z,7.66
2018-03-30T01:35:36.650Z,7.80
2018-03-30T01:36:36.638Z,7.67
2018-03-30T01:37:36.627Z,7.75
2018-03-30T01:38:36.627Z,7.80
2018-03-30T01:39:36.603Z,7.73
2018-03-30T01:40:36.626Z,7.75
2018-03-30T01:41:36.579Z,7.76
2018-03-30T01:42:36.574Z,7.72
2018-03-30T01:43:36.596Z,7.70
2018-03-30T01:44:36.543Z,7.69
2018-03-30T01:45:36.531Z,7.69
2018-03-30T01:46:36.539Z,7.67
2018-03-30T01:47:36.507Z,7.69
2018-03-30T01:48:36.496Z,7.69
2018-03-30T01:49:36.484Z,7.76
2018-03-30T01:50:36.473Z,7.69
2018-03-30T01:51:36.460Z,7.72
2018-03-30T01:52:36.462Z,7.63
2018-03-30T01:53:36.444Z,7.70
2018-03-30T01:54:36.426Z,7.69
2018-03-30T01:55:36.416Z,7.69
2018-03-30T01:56:36.402Z,7.66
2018-03-30T01:57:36.389Z,7.53
2018-03-30T01:58:36.409Z,7.51
2018-03-30T01:59:36.366Z,7.58
2018-03-30T02:00:36.354Z,7.48
2018-03-30T02:01:36.342Z,7.56
2018-03-30T02:02:36.330Z,7.48
2018-03-30T02:03:36.318Z,7.48
2018-03-30T02:04:36.307Z,7.43
2018-03-30T02:05:36.295Z,7.40
2018-03-30T02:06:36.283Z,7.48
2018-03-30T02:07:36.273Z,7.48
2018-03-30T02:08:36.287Z,7.45
2018-03-30T02:09:36.249Z,7.53
2018-03-30T02:10:36.236Z,7.50
2018-03-30T02:11:36.223Z,7.48
2018-03-30T02:12:36.212Z,7.50
2018-03-30T02:13:36.206Z,7.48
2018-03-30T02:14:36.208Z,7.48
2018-03-30T02:15:36.176Z,7.53
2018-03-30T02:16:36.164Z,7.53
2018-03-30T02:17:36.152Z,7.53
2018-03-30T02:18:36.140Z,7.51
2018-03-30T02:19:36.128Z,7.50
2018-03-30T02:20:36.117Z,7.51
2018-03-30T02:21:36.106Z,7.51
2018-03-30T02:22:36.095Z,7.57
2018-03-30T02:23:36.082Z,7.53
2018-03-30T02:24:36.089Z,7.66
2018-03-30T02:25:36.275Z,7.54
2018-03-30T02:26:36.047Z,7.60
2018-03-30T02:27:36.034Z,7.63
2018-03-30T02:28:36.045Z,7.72
2018-03-30T02:29:36.028Z,7.66
2018-03-30T02:30:36.008Z,7.66
2018-03-30T02:31:36.029Z,7.66
2018-03-30T02:32:35.977Z,7.50
2018-03-30T02:33:35.965Z,7.60
2018-03-30T02:34:35.959Z,7.50
2018-03-30T02:35:35.940Z,7.47
2018-03-30T02:36:35.929Z,7.35
2018-03-30T02:37:35.918Z,7.43
2018-03-30T02:38:35.906Z,7.47
2018-03-30T02:39:35.900Z,7.47
2018-03-30T02:40:35.906Z,7.45
2018-03-30T02:41:35.872Z,7.50
2018-03-30T02:42:35.861Z,7.38
2018-03-30T02:43:35.847Z,7.36
2018-03-30T02:44:35.850Z,7.36
2018-03-30T02:45:35.824Z,7.35
2018-03-30T02:46:35.820Z,7.38
2018-03-30T02:47:35.800Z,7.25
2018-03-30T02:48:35.789Z,7.25
2018-03-30T02:49:35.777Z,7.23
2018-03-30T02:50:35.766Z,7.21
2018-03-30T02:51:35.760Z,7.36
2018-03-30T02:52:35.744Z,7.35
2018-03-30T02:53:35.741Z,7.33
2018-03-30T02:54:35.721Z,7.31
2018-03-30T02:55:35.723Z,7.23
2018-03-30T02:56:35.696Z,7.25
2018-03-30T02:57:35.792Z,7.20
2018-03-30T02:58:35.674Z,7.18
2018-03-30T02:59:35.663Z,7.20
2018-03-30T03:00:35.656Z,7.20
2018-03-30T03:01:35.641Z,7.13
2018-03-30T03:02:35.628Z,7.18
2018-03-30T03:03:35.615Z,7.21
2018-03-30T03:04:35.604Z,7.23
2018-03-30T03:05:35.591Z,7.20
2018-03-30T03:06:35.581Z,7.21
2018-03-30T03:07:35.569Z,7.28
2018-03-30T03:08:35.556Z,7.20
2018-03-30T03:09:35.549Z,7.20
2018-03-30T03:10:35.534Z,7.24
2018-03-30T03:11:35.527Z,7.18
2018-03-30T03:12:35.510Z,7.21
2018-03-30T03:13:35.531Z,7.18
2018-03-30T03:14:35.487Z,7.20
2018-03-30T03:15:35.479Z,7.13
2018-03-30T03:16:35.679Z,7.06
2018-03-30T03:17:35.451Z,7.07
2018-03-30T03:18:35.441Z,7.00
2018-03-30T03:19:35.448Z,7.00
2018-03-30T03:20:35.421Z,6.99
2018-03-30T03:21:35.409Z,6.99
2018-03-30T03:22:35.393Z,6.99
2018-03-30T03:23:35.381Z,6.93
2018-03-30T03:24:35.370Z,6.99
2018-03-30T03:25:35.386Z,6.92
2018-03-30T03:26:35.350Z,6.92
2018-03-30T03:27:35.334Z,6.89
2018-03-30T03:28:35.323Z,6.82
2018-03-30T03:29:35.315Z,6.77
2018-03-30T03:30:35.310Z,6.79
2018-03-30T03:31:35.310Z,6.81
2018-03-30T03:32:35.276Z,6.82
2018-03-30T03:33:35.270Z,6.75
2018-03-30T03:34:35.252Z,6.75
2018-03-30T03:35:35.240Z,6.79
2018-03-30T03:36:35.228Z,6.82
2018-03-30T03:37:35.216Z,6.85
2018-03-30T03:38:35.208Z,6.85
2018-03-30T03:39:35.192Z,6.97
2018-03-30T03:40:35.181Z,6.95
2018-03-30T03:41:35.175Z,6.96
2018-03-30T03:42:35.206Z,7.00
2018-03-30T03:43:35.145Z,6.97
2018-03-30T03:44:35.133Z,7.00
2018-03-30T03:45:35.145Z,6.95
2018-03-30T03:46:35.128Z,7.00
2018-03-30T03:47:35.097Z,6.99
2018-03-30T03:48:35.132Z,7.00
2018-03-30T03:49:35.074Z,6.95
2018-03-30T03:50:35.062Z,7.03
2018-03-30T03:51:35.062Z,7.11
2018-03-30T03:52:35.039Z,7.10
2018-03-30T03:53:35.029Z,7.15
2018-03-30T03:54:35.015Z,7.07
2018-03-30T03:55:35.002Z,6.99
2018-03-30T03:56:35.027Z,7.05
2018-03-30T03:57:35.005Z,7.03
2018-03-30T03:58:34.966Z,7.00
2018-03-30T03:59:34.954Z,6.99
2018-03-30T04:00:34.942Z,7.02
2018-03-30T04:01:34.931Z,6.97
2018-03-30T04:02:34.920Z,6.99
2018-03-30T04:03:34.906Z,6.97
2018-03-30T04:04:34.937Z,7.00
2018-03-30T04:05:34.884Z,6.97
2018-03-30T04:06:34.871Z,6.95
2018-03-30T04:07:34.860Z,6.99
2018-03-30T04:08:34.846Z,6.99
2018-03-30T04:09:34.835Z,7.02
2018-03-30T04:10:34.823Z,6.87
2018-03-30T04:11:34.810Z,6.97
2018-03-30T04:12:34.809Z,7.00
2018-03-30T04:13:34.810Z,6.99
2018-03-30T04:14:34.775Z,6.99
2018-03-30T04:15:34.773Z,6.96
2018-03-30T04:16:34.751Z,6.97
2018-03-30T04:17:34.745Z,6.97
2018-03-30T04:18:34.729Z,6.96
2018-03-30T04:19:34.726Z,6.99
2018-03-30T04:20:34.716Z,6.96
2018-03-30T04:21:34.691Z,6.97
2018-03-30T04:22:34.679Z,6.95
2018-03-30T04:23:34.666Z,6.95
2018-03-30T04:24:34.665Z,7.00
2018-03-30T04:25:34.643Z,6.99
2018-03-30T04:26:34.636Z,6.97
2018-03-30T04:27:34.618Z,6.99
2018-03-30T04:28:34.623Z,6.99
2018-03-30T04:29:34.594Z,6.96
2018-03-30T04:30:34.632Z,7.00
2018-03-30T04:31:34.571Z,6.95
2018-03-30T04:32:34.557Z,7.02
2018-03-30T04:33:34.561Z,6.99
2018-03-30T04:34:34.545Z,6.99
2018-03-30T04:35:34.520Z,6.93
2018-03-30T04:36:34.547Z,6.89
2018-03-30T04:37:34.496Z,6.89
2018-03-30T04:38:34.483Z,6.78
2018-03-30T04:39:34.471Z,6.82
2018-03-30T04:40:34.479Z,6.74
2018-03-30T04:41:34.446Z,6.69
2018-03-30T04:42:34.433Z,6.72
2018-03-30T04:43:34.420Z,6.63
2018-03-30T04:44:34.408Z,6.56
2018-03-30T04:45:34.417Z,6.48
2018-03-30T04:46:34.382Z,6.45
2018-03-30T04:47:34.369Z,6.41
2018-03-30T04:48:34.359Z,6.35
2018-03-30T04:49:34.344Z,6.35
2018-03-30T04:50:34.331Z,6.30
2018-03-30T04:51:34.321Z,6.31
2018-03-30T04:52:34.305Z,6.28
2018-03-30T04:53:34.296Z,6.26
2018-03-30T04:54:34.280Z,6.35
2018-03-30T04:55:34.266Z,6.35
2018-03-30T04:56:34.262Z,6.39
2018-03-30T04:57:34.241Z,6.39
2018-03-30T04:58:34.243Z,6.36
2018-03-30T04:59:34.215Z,6.31
2018-03-30T05:00:34.202Z,6.35
2018-03-30T05:01:34.190Z,6.28
2018-03-30T05:02:34.188Z,6.28
2018-03-30T05:03:34.164Z,6.24
2018-03-30T05:04:34.152Z,6.24
2018-03-30T05:05:34.183Z,6.38
2018-03-30T05:06:34.133Z,6.33
2018-03-30T05:07:34.181Z,6.30
2018-03-30T05:08:34.114Z,6.36
2018-03-30T05:09:34.090Z,6.42
2018-03-30T05:10:34.113Z,6.42
2018-03-30T05:11:34.101Z,6.44
2018-03-30T05:12:34.054Z,6.44
2018-03-30T05:13:34.099Z,6.45
2018-03-30T05:14:34.026Z,6.45
2018-03-30T05:15:34.012Z,6.39
2018-03-30T05:16:34.036Z,6.42
2018-03-30T05:17:33.998Z,6.38
2018-03-30T05:18:33.975Z,6.42
2018-03-30T05:19:33.961Z,6.39
2018-03-30T05:20:33.959Z,6.38
2018-03-30T05:21:33.936Z,6.41
2018-03-30T05:22:33.924Z,6.45
2018-03-30T05:23:33.918Z,6.45
2018-03-30T05:24:33.902Z,6.46
2018-03-30T05:25:33.927Z,6.51
2018-03-30T05:26:33.880Z,6.48
2018-03-30T05:27:34.063Z,6.45
2018-03-30T05:28:33.847Z,6.46
2018-03-30T05:29:33.882Z,6.51
2018-03-30T05:30:33.822Z,6.42
2018-03-30T05:31:33.815Z,6.41
2018-03-30T05:32:33.796Z,6.46
2018-03-30T05:33:33.792Z,6.56
2018-03-30T05:34:33.779Z,6.54
2018-03-30T05:35:33.789Z,6.54
2018-03-30T05:36:33.745Z,6.46
2018-03-30T05:37:33.827Z,6.48
2018-03-30T05:38:33.720Z,6.60
2018-03-30T05:39:33.744Z,6.66
2018-03-30T05:40:33.694Z,6.56
2018-03-30T05:41:33.681Z,6.59
2018-03-30T05:42:33.670Z,6.57
2018-03-30T05:43:33.658Z,6.62
2018-03-30T05:44:33.642Z,6.66
2018-03-30T05:45:33.633Z,6.74
2018-03-30T05:46:33.617Z,6.67
2018-03-30T05:47:33.603Z,6.69
2018-03-30T05:48:33.593Z,6.70
2018-03-30T05:49:33.578Z,6.72
2018-03-30T05:50:33.771Z,6.70
2018-03-30T05:51:33.554Z,6.74
2018-03-30T05:52:33.541Z,6.72
2018-03-30T05:54:33.514Z,6.70
2018-03-30T05:55:33.502Z,6.67
2018-03-30T05:56:33.523Z,6.72
2018-03-30T05:57:33.473Z,6.69
2018-03-30T05:58:33.461Z,6.72
2018-03-30T05:59:33.449Z,6.63
2018-03-30T06:00:33.443Z,6.72
2018-03-30T06:01:33.425Z,6.69
2018-03-30T06:02:33.410Z,6.72
2018-03-30T06:03:33.395Z,6.75
2018-03-30T06:04:33.589Z,6.72
2018-03-30T06:05:33.370Z,6.64
2018-03-30T06:06:33.363Z,6.69
2018-03-30T06:08:33.331Z,6.81
2018-03-30T06:09:33.318Z,6.84
2018-03-30T06:10:33.354Z,6.81
2018-03-30T06:11:33.292Z,6.78
2018-03-30T06:12:33.279Z,6.84
2018-03-30T06:13:33.279Z,6.81
2018-03-30T06:14:33.259Z,6.84
2018-03-30T06:15:33.240Z,6.78
2018-03-30T06:16:33.231Z,6.78
2018-03-30T06:17:33.215Z,6.79
2018-03-30T06:18:33.203Z,6.92
2018-03-30T06:19:33.191Z,6.82
2018-03-30T06:20:33.177Z,6.82
2018-03-30T06:21:33.220Z,6.85
2018-03-30T06:22:33.152Z,6.89
2018-03-30T06:23:33.139Z,6.87
2018-03-30T06:24:33.210Z,6.89
2018-03-30T06:25:33.115Z,6.88
2018-03-30T06:26:33.102Z,6.92
2018-03-30T06:27:33.292Z,6.89
2018-03-30T06:28:33.082Z,6.88
2018-03-30T06:29:33.064Z,6.87
2018-03-30T06:30:33.254Z,6.96
2018-03-30T06:31:33.040Z,6.93
2018-03-30T06:32:33.026Z,6.92
2018-03-30T06:34:33.001Z,6.92
2018-03-30T06:35:32.988Z,6.89
2018-03-30T06:36:32.976Z,6.92
2018-03-30T06:37:32.963Z,6.92
2018-03-30T06:38:32.951Z,7.02
2018-03-30T06:39:32.943Z,6.97
2018-03-30T06:40:32.926Z,7.00
2018-03-30T06:41:32.925Z,6.97
2018-03-30T06:42:32.902Z,6.97
2018-03-30T06:43:32.889Z,6.96
2018-03-30T06:44:33.104Z,7.05
2018-03-30T06:45:32.865Z,6.85
2018-03-30T06:46:32.854Z,7.00
2018-03-30T06:47:32.880Z,6.99
2018-03-30T06:48:32.832Z,7.00
2018-03-30T06:49:32.816Z,7.03
2018-03-30T06:50:32.810Z,7.06
2018-03-30T06:51:32.791Z,7.03
2018-03-30T06:52:32.781Z,6.96
2018-03-30T06:53:32.766Z,7.00
2018-03-30T06:54:32.756Z,7.02
2018-03-30T06:55:32.742Z,7.07
2018-03-30T06:56:32.730Z,7.17
2018-03-30T06:57:32.718Z,7.02
2018-03-30T06:58:32.735Z,7.10
2018-03-30T06:59:32.693Z,7.07
2018-03-30T07:00:32.683Z,7.15
2018-03-30T07:02:32.657Z,7.13
2018-03-30T07:03:32.645Z,7.11
2018-03-30T07:04:32.718Z,7.13
2018-03-30T07:05:32.620Z,7.15
2018-03-30T07:06:32.608Z,7.15
2018-03-30T07:07:32.798Z,7.18
2018-03-30T07:08:32.584Z,7.18
2018-03-30T07:09:32.571Z,7.18
2018-03-30T07:10:32.601Z,7.21
2018-03-30T07:11:32.546Z,7.24
2018-03-30T07:12:32.542Z,7.15
2018-03-30T07:13:32.725Z,7.25
2018-03-30T07:14:32.511Z,7.23
2018-03-30T07:15:32.501Z,7.20
2018-03-30T07:16:32.499Z,7.36
2018-03-30T07:17:32.475Z,7.31
2018-03-30T07:18:32.468Z,7.33
2018-03-30T07:19:32.451Z,7.31
2018-03-30T07:20:32.443Z,7.36
2018-03-30T07:21:32.491Z,7.32
2018-03-30T07:22:32.456Z,7.39
2018-03-30T07:23:32.403Z,7.38
2018-03-30T07:24:32.480Z,7.35
2018-03-30T07:25:32.381Z,7.40
2018-03-30T07:26:32.372Z,7.47
2018-03-30T07:27:32.560Z,7.45
2018-03-30T07:28:32.345Z,7.48
2018-03-30T07:29:32.334Z,7.51
2018-03-30T07:30:32.351Z,7.47
2018-03-30T07:31:32.311Z,7.56
2018-03-30T07:32:32.299Z,7.53
2018-03-30T07:33:32.288Z,7.51
2018-03-30T07:34:32.277Z,7.60
2018-03-30T07:35:32.265Z,7.76
2018-03-30T07:36:32.254Z,7.72
2018-03-30T07:37:32.245Z,7.67
2018-03-30T07:38:32.233Z,7.70
2018-03-30T07:39:32.220Z,7.72
2018-03-30T07:40:32.210Z,7.82
2018-03-30T07:41:32.292Z,7.75
2018-03-30T07:42:32.188Z,7.85
2018-03-30T07:43:32.177Z,7.95
2018-03-30T07:44:32.219Z,8.06
2018-03-30T07:45:32.156Z,8.15
2018-03-30T07:46:32.146Z,8.34
2018-03-30T07:47:32.338Z,8.64
2018-03-30T07:48:32.126Z,8.88
2018-03-30T07:49:32.118Z,8.94
2018-03-30T07:50:32.108Z,8.97
2018-03-30T07:51:32.101Z,8.91
2018-03-30T07:52:32.091Z,8.81
2018-03-30T07:53:32.081Z,8.85
2018-03-30T07:54:32.072Z,8.70
2018-03-30T07:55:32.277Z,8.78
2018-03-30T07:56:32.054Z,8.92
2018-03-30T07:57:32.045Z,8.99
2018-03-30T07:58:32.126Z,9.28
2018-03-30T07:59:32.026Z,9.51
2018-03-30T08:00:32.019Z,9.77
2018-03-30T08:01:32.058Z,10.15
2018-03-30T08:02:32.006Z,10.30
2018-03-30T08:03:32.037Z,10.46
2018-03-30T08:04:31.991Z,10.44
2018-03-30T08:05:31.986Z,10.57
2018-03-30T08:06:32.060Z,10.74
2018-03-30T08:07:31.974Z,10.86
2018-03-30T08:08:31.968Z,10.90
2018-03-30T08:09:32.011Z,10.97
2018-03-30T08:10:31.959Z,11.14
2018-03-30T08:11:31.952Z,11.25
2018-03-30T08:12:31.949Z,11.37
2018-03-30T08:13:31.946Z,11.41
2018-03-30T08:14:31.941Z,11.51
2018-03-30T08:15:31.936Z,11.60
2018-03-30T08:16:31.933Z,11.81
2018-03-30T08:17:32.013Z,11.97
2018-03-30T08:18:31.927Z,12.18
2018-03-30T08:19:31.924Z,12.36
2018-03-30T08:20:31.957Z,12.60
2018-03-30T08:21:31.920Z,12.83
2018-03-30T08:22:31.982Z,12.70
2018-03-30T08:23:31.916Z,12.75
2018-03-30T08:24:31.918Z,12.79
2018-03-30T08:25:31.913Z,12.93
2018-03-30T08:26:31.912Z,13.01
2018-03-30T08:27:31.911Z,13.15
2018-03-30T08:28:32.009Z,13.25
2018-03-30T08:29:31.909Z,13.25
2018-03-30T08:30:31.912Z,13.13
2018-03-30T08:31:32.126Z,13.01
2018-03-30T08:32:31.906Z,12.90
2018-03-30T08:33:31.905Z,12.95
2018-03-30T08:34:31.904Z,12.90
2018-03-30T08:35:31.902Z,12.90
2018-03-30T08:36:31.900Z,13.11
2018-03-30T08:37:31.901Z,13.00
2018-03-30T08:38:31.901Z,13.12
2018-03-30T08:39:31.986Z,13.01
2018-03-30T08:40:31.897Z,13.19
2018-03-30T08:41:31.896Z,13.37
2018-03-30T08:42:31.935Z,13.56
2018-03-30T08:43:31.898Z,13.60
2018-03-30T08:44:31.896Z,13.67
2018-03-30T08:45:31.893Z,13.47
2018-03-30T08:46:31.893Z,13.62
2018-03-30T08:47:31.900Z,13.70
2018-03-30T08:48:31.891Z,13.95
2018-03-30T08:49:31.891Z,14.12
2018-03-30T08:50:32.095Z,14.12
2018-03-30T08:51:31.895Z,14.11
2018-03-30T08:52:31.890Z,14.04
2018-03-30T08:53:31.897Z,13.89
2018-03-30T08:54:31.893Z,13.75
2018-03-30T08:55:31.889Z,13.92
2018-03-30T08:56:31.888Z,13.83
2018-03-30T08:57:31.888Z,13.74
2018-03-30T08:58:32.122Z,13.78
2018-03-30T08:59:31.887Z,13.72
2018-03-30T09:00:31.886Z,13.68
2018-03-30T09:01:32.088Z,13.68
2018-03-30T09:02:31.885Z,13.77
2018-03-30T09:03:31.883Z,13.92
2018-03-30T09:04:31.886Z,13.96
2018-03-30T09:05:31.954Z,14.04
2018-03-30T09:06:31.881Z,13.86
2018-03-30T09:07:31.881Z,13.89
2018-03-30T09:08:31.875Z,13.67
2018-03-30T09:09:31.876Z,13.67
2018-03-30T09:10:31.872Z,13.92
2018-03-30T09:11:31.871Z,14.07
2018-03-30T09:12:31.869Z,14.15
2018-03-30T09:13:31.941Z,14.14
2018-03-30T09:14:31.868Z,14.30
2018-03-30T09:15:31.867Z,14.47
2018-03-30T09:16:31.875Z,14.69
2018-03-30T09:17:31.866Z,14.78
2018-03-30T09:18:31.869Z,14.73
2018-03-30T09:19:31.866Z,15.04
2018-03-30T09:20:31.873Z,15.27
2018-03-30T09:21:31.869Z,15.43
2018-03-30T09:22:31.875Z,15.54
2018-03-30T09:23:31.875Z,15.55
2018-03-30T09:24:31.972Z,15.68
2018-03-30T09:25:31.874Z,15.58
2018-03-30T09:26:31.878Z,15.84
2018-03-30T09:27:31.880Z,15.98
2018-03-30T09:28:31.879Z,16.04
2018-03-30T09:29:31.886Z,16.32
2018-03-30T09:30:31.882Z,16.26
2018-03-30T09:31:31.884Z,16.01
2018-03-30T09:32:31.939Z,15.65
2018-03-30T09:33:31.887Z,15.62
2018-03-30T09:34:31.891Z,15.58
2018-03-30T09:35:31.932Z,15.65
2018-03-30T09:36:31.891Z,15.64
2018-03-30T09:37:31.891Z,15.58
2018-03-30T09:38:31.896Z,15.51
2018-03-30T09:39:31.892Z,15.42
2018-03-30T09:40:31.892Z,15.42
2018-03-30T09:41:31.897Z,15.51
2018-03-30T09:42:31.894Z,15.42
2018-03-30T09:43:31.972Z,15.27
2018-03-30T09:44:31.894Z,15.06
2018-03-30T09:45:31.895Z,14.92
2018-03-30T09:46:31.894Z,14.84
2018-03-30T09:47:31.894Z,14.73
2018-03-30T09:48:31.893Z,14.89
2018-03-30T09:49:31.893Z,14.84
2018-03-30T09:50:31.893Z,14.78
2018-03-30T09:51:31.891Z,14.59
2018-03-30T09:52:31.890Z,14.33
2018-03-30T09:53:31.889Z,14.40
2018-03-30T09:54:31.977Z,14.28
2018-03-30T09:55:31.887Z,14.20
2018-03-30T09:56:31.882Z,13.99
2018-03-30T09:57:31.879Z,13.78
2018-03-30T09:58:31.877Z,13.63
2018-03-30T09:59:31.874Z,13.63
2018-03-30T10:00:31.869Z,13.42
2018-03-30T10:01:31.866Z,13.22
2018-03-30T10:02:32.066Z,13.27
2018-03-30T10:03:31.858Z,13.25
2018-03-30T10:04:32.057Z,13.33
2018-03-30T10:05:31.851Z,13.27
2018-03-30T10:06:31.850Z,13.37
2018-03-30T10:07:31.885Z,13.54
2018-03-30T10:08:31.839Z,13.54
2018-03-30T10:09:31.830Z,13.77
2018-03-30T10:10:31.832Z,14.14
2018-03-30T10:11:31.821Z,14.53
2018-03-30T10:12:31.821Z,14.96
2018-03-30T10:13:31.815Z,15.09
2018-03-30T10:14:31.815Z,15.40
2018-03-30T10:15:31.812Z,15.79
2018-03-30T10:16:31.810Z,15.82
2018-03-30T10:17:31.813Z,16.28
2018-03-30T10:18:31.909Z,16.51
2018-03-30T10:19:31.807Z,16.56
2018-03-30T10:20:31.808Z,16.43
2018-03-30T10:21:31.857Z,16.68
2018-03-30T10:22:31.811Z,16.87
2018-03-30T10:23:31.813Z,16.68
2018-03-30T10:24:31.852Z,16.57
2018-03-30T10:25:31.818Z,16.53
2018-03-30T10:26:31.819Z,16.24
2018-03-30T10:27:31.821Z,16.13
2018-03-30T10:28:31.823Z,16.09
2018-03-30T10:29:31.904Z,16.39
2018-03-30T10:30:31.829Z,16.56
2018-03-30T10:31:31.833Z,16.78
2018-03-30T10:32:31.894Z,17.09
2018-03-30T10:33:31.842Z,17.31
2018-03-30T10:34:31.842Z,17.42
2018-03-30T10:35:31.849Z,17.59
2018-03-30T10:36:31.854Z,17.67
2018-03-30T10:37:31.857Z,17.76
2018-03-30T10:38:31.861Z,17.97
2018-03-30T10:39:31.866Z,18.05
2018-03-30T10:40:31.926Z,18.23
2018-03-30T10:41:31.877Z,18.26
2018-03-30T10:42:31.884Z,18.26
2018-03-30T10:43:31.968Z,18.28
2018-03-30T10:44:31.894Z,18.29
2018-03-30T10:45:31.906Z,17.98
2018-03-30T10:46:31.908Z,17.68
2018-03-30T10:47:31.915Z,17.57
2018-03-30T10:48:32.132Z,17.59
2018-03-30T10:49:31.924Z,17.63
2018-03-30T10:50:31.929Z,17.26
2018-03-30T10:51:31.982Z,17.30
2018-03-30T10:52:31.939Z,17.30
2018-03-30T10:53:31.945Z,17.30
2018-03-30T10:54:31.962Z,17.52
2018-03-30T10:55:31.956Z,17.76
2018-03-30T10:56:31.962Z,17.92
2018-03-30T10:57:31.969Z,17.94
2018-03-30T10:58:31.978Z,18.07
2018-03-30T10:59:32.188Z,18.05
2018-03-30T11:00:31.985Z,17.74
2018-03-30T11:01:31.993Z,17.52
2018-03-30T11:02:32.045Z,17.59
2018-03-30T11:03:32.002Z,17.41
2018-03-30T11:04:32.012Z,17.12
2018-03-30T11:05:32.030Z,17.04
2018-03-30T11:06:32.017Z,17.45
2018-03-30T11:07:32.021Z,17.70
2018-03-30T11:08:32.027Z,17.78
2018-03-30T11:09:32.037Z,18.11
2018-03-30T11:10:32.100Z,18.11
2018-03-30T11:11:32.041Z,17.94
2018-03-30T11:12:32.045Z,17.71
2018-03-30T11:13:32.076Z,17.48
2018-03-30T11:14:32.058Z,17.39
2018-03-30T11:15:32.060Z,17.31
2018-03-30T11:16:32.063Z,17.30
2018-03-30T11:17:32.066Z,17.46
2018-03-30T11:18:32.161Z,17.46
2018-03-30T11:19:32.073Z,17.51
2018-03-30T11:20:32.078Z,17.30
2018-03-30T11:21:32.116Z,17.34
2018-03-30T11:22:32.085Z,17.34
2018-03-30T11:23:32.088Z,17.94
2018-03-30T11:24:32.113Z,17.94
2018-03-30T11:25:32.099Z,17.95
2018-03-30T11:26:32.101Z,18.10
2018-03-30T11:27:32.105Z,18.40
2018-03-30T11:28:32.108Z,17.97
2018-03-30T11:30:32.116Z,17.71
2018-03-30T11:31:32.121Z,17.33
2018-03-30T11:32:32.327Z,16.99
2018-03-30T11:33:32.127Z,16.76
2018-03-30T11:34:32.129Z,16.74
2018-03-30T11:35:32.140Z,16.91
2018-03-30T11:36:32.134Z,17.22
2018-03-30T11:37:32.343Z,17.30
2018-03-30T11:38:32.141Z,17.24
2018-03-30T11:39:32.143Z,17.16
2018-03-30T11:40:32.186Z,16.79
2018-03-30T11:41:32.150Z,16.29
2018-03-30T11:42:32.153Z,16.10
2018-03-30T11:43:32.150Z,16.10
2018-03-30T11:44:32.154Z,16.41
2018-03-30T11:45:32.154Z,16.60
2018-03-30T11:46:32.156Z,16.42
2018-03-30T11:47:32.155Z,16.10
2018-03-30T11:48:32.255Z,16.13
2018-03-30T11:49:32.159Z,16.23
2018-03-30T11:50:32.192Z,16.05
2018-03-30T11:51:32.205Z,15.75
2018-03-30T11:52:32.157Z,15.62
2018-03-30T11:53:32.157Z,15.62
2018-03-30T11:54:32.156Z,15.65
2018-03-30T11:55:32.156Z,15.67
2018-03-30T11:56:32.153Z,15.77
2018-03-30T11:57:32.154Z,15.86
2018-03-30T11:58:32.160Z,15.98
2018-03-30T12:00:32.148Z,16.26
2018-03-30T12:01:32.148Z,16.41
2018-03-30T12:02:32.202Z,16.49
2018-03-30T12:03:32.161Z,16.56
2018-03-30T12:04:32.142Z,16.57
2018-03-30T12:05:32.144Z,16.66
2018-03-30T12:06:32.140Z,16.69
2018-03-30T12:07:32.140Z,16.65
2018-03-30T12:08:32.216Z,16.76
2018-03-30T12:09:32.136Z,16.64
2018-03-30T12:10:32.136Z,16.50
2018-03-30T12:11:32.177Z,16.31
2018-03-30T12:12:32.131Z,16.01
2018-03-30T12:13:32.127Z,16.08
2018-03-30T12:14:32.149Z,15.98
2018-03-30T12:15:32.124Z,16.01
2018-03-30T12:16:32.125Z,16.01
2018-03-30T12:17:32.117Z,15.52
2018-03-30T12:18:32.115Z,15.29
2018-03-30T12:19:32.133Z,15.28
2018-03-30T12:20:32.109Z,15.29
2018-03-30T12:21:32.106Z,15.35
2018-03-30T12:22:32.310Z,15.39
2018-03-30T12:23:32.099Z,15.28
2018-03-30T12:24:32.098Z,15.28
2018-03-30T12:25:32.135Z,15.35
2018-03-30T12:26:32.090Z,15.42
2018-03-30T12:27:32.091Z,15.47
2018-03-30T12:28:32.084Z,15.58
2018-03-30T12:29:32.080Z,15.79
2018-03-30T12:30:32.077Z,15.83
2018-03-30T12:31:32.075Z,15.84
2018-03-30T12:32:32.075Z,16.00
2018-03-30T12:33:32.145Z,16.10
2018-03-30T12:34:32.066Z,16.10
2018-03-30T12:35:32.060Z,16.09
2018-03-30T12:36:32.100Z,15.92
2018-03-30T12:37:32.054Z,15.88
2018-03-30T12:38:32.051Z,15.90
2018-03-30T12:39:32.052Z,15.90
2018-03-30T12:40:32.045Z,15.83
2018-03-30T12:41:32.044Z,16.15
2018-03-30T12:42:32.040Z,16.12
2018-03-30T12:43:32.037Z,16.05
2018-03-30T12:44:32.237Z,16.02
2018-03-30T12:45:32.031Z,15.82
2018-03-30T12:46:32.037Z,15.64
2018-03-30T12:47:32.227Z,15.57
2018-03-30T12:48:32.021Z,15.42
2018-03-30T12:49:32.018Z,15.55
2018-03-30T12:50:32.028Z,15.49
2018-03-30T12:51:32.012Z,15.62
2018-03-30T12:52:32.008Z,15.77
2018-03-30T12:53:32.005Z,15.57
2018-03-30T12:54:32.002Z,15.40
2018-03-30T12:55:32.117Z,15.52
2018-03-30T12:56:31.994Z,15.58
2018-03-30T12:57:31.993Z,15.65
2018-03-30T12:59:31.993Z,15.98
2018-03-30T13:00:31.979Z,15.95
2018-03-30T13:01:32.007Z,15.86
2018-03-30T13:02:31.972Z,15.79
2018-03-30T13:03:31.968Z,15.88
2018-03-30T13:04:31.965Z,15.91
2018-03-30T13:05:31.968Z,15.94
2018-03-30T13:06:31.959Z,15.79
2018-03-30T13:07:32.042Z,15.80
2018-03-30T13:08:31.950Z,15.76
2018-03-30T13:09:31.949Z,15.75
2018-03-30T13:10:32.145Z,15.80
2018-03-30T13:11:31.937Z,15.64
2018-03-30T13:12:31.935Z,15.64
2018-03-30T13:13:31.958Z,15.75
2018-03-30T13:14:31.926Z,15.98
2018-03-30T13:15:31.920Z,16.08